sensor_id;sensor_type;location;lat;lon;timestamp;pressure;altitude;pressure_sealevel;temperature;humidity
2841;BME280;53423;49.224;12.074;2022-11-12T00:00:55;99475.00;;;7.93;75.18
2841;BME280;53423;49.224;12.074;2022-11-12T00:03:24;99477.69;;;7.79;75.39
2841;BME280;53423;49.224;12.074;2022-11-12T00:05:52;99473.84;;;7.84;74.71
2841;BME280;53423;49.224;12.074;2022-11-12T00:08:20;99482.50;;;7.72;75.69
2841;BME280;53423;49.224;12.074;2022-11-12T00:10:49;99467.56;;;7.74;75.77
2841;BME280;53423;49.224;12.074;2022-11-12T00:13:16;99471.63;;;7.78;76.55
2841;BME280;53423;49.224;12.074;2022-11-12T00:15:46;99475.81;;;7.93;75.46
2841;BME280;53423;49.224;12.074;2022-11-12T00:18:13;99474.78;;;7.96;75.70
2841;BME280;53423;49.224;12.074;2022-11-12T00:20:41;99471.34;;;8.08;74.85
2841;BME280;53423;49.224;12.074;2022-11-12T00:23:09;99472.28;;;7.94;75.73
2841;BME280;53423;49.224;12.074;2022-11-12T00:25:37;99466.13;;;7.83;76.11
2841;BME280;53423;49.224;12.074;2022-11-12T00:28:06;99466.31;;;7.92;76.39
2841;BME280;53423;49.224;12.074;2022-11-12T00:30:37;99467.66;;;7.85;76.04
2841;BME280;53423;49.224;12.074;2022-11-12T00:33:06;99479.88;;;7.85;75.81
2841;BME280;53423;49.224;12.074;2022-11-12T00:35:34;99467.28;;;7.91;76.06
2841;BME280;53423;49.224;12.074;2022-11-12T00:38:02;99470.50;;;8.07;74.91
2841;BME280;53423;49.224;12.074;2022-11-12T00:40:30;99472.91;;;7.98;75.91
2841;BME280;53423;49.224;12.074;2022-11-12T00:42:57;99468.59;;;7.97;74.98
2841;BME280;53423;49.224;12.074;2022-11-12T00:45:25;99478.97;;;7.86;75.02
2841;BME280;53423;49.224;12.074;2022-11-12T00:47:54;99481.91;;;7.54;75.84
2841;BME280;53423;49.224;12.074;2022-11-12T00:50:23;99481.22;;;7.65;76.20
2841;BME280;53423;49.224;12.074;2022-11-12T00:52:52;99479.56;;;7.64;75.71
2841;BME280;53423;49.224;12.074;2022-11-12T00:55:20;99468.59;;;7.59;75.42
2841;BME280;53423;49.224;12.074;2022-11-12T00:57:48;99466.31;;;7.67;74.45
2841;BME280;53423;49.224;12.074;2022-11-12T01:00:17;99464.06;;;7.61;75.09
2841;BME280;53423;49.224;12.074;2022-11-12T01:02:45;99472.53;;;7.65;75.29
2841;BME280;53423;49.224;12.074;2022-11-12T01:05:17;99461.28;;;7.64;75.92
2841;BME280;53423;49.224;12.074;2022-11-12T01:07:47;99465.03;;;7.60;75.27
2841;BME280;53423;49.224;12.074;2022-11-12T01:10:21;99466.88;;;7.45;75.99
2841;BME280;53423;49.224;12.074;2022-11-12T01:12:49;99457.63;;;7.54;75.63
2841;BME280;53423;49.224;12.074;2022-11-12T01:15:17;99460.09;;;7.43;76.53
2841;BME280;53423;49.224;12.074;2022-11-12T01:17:44;99461.34;;;7.50;75.61
2841;BME280;53423;49.224;12.074;2022-11-12T01:20:12;99455.81;;;7.54;75.50
2841;BME280;53423;49.224;12.074;2022-11-12T01:22:40;99439.53;;;7.51;75.59
2841;BME280;53423;49.224;12.074;2022-11-12T01:25:09;99444.31;;;7.44;75.12
2841;BME280;53423;49.224;12.074;2022-11-12T01:27:37;99442.88;;;7.40;76.77
2841;BME280;53423;49.224;12.074;2022-11-12T01:30:05;99437.25;;;7.46;75.95
2841;BME280;53423;49.224;12.074;2022-11-12T01:32:34;99441.19;;;7.39;76.55
2841;BME280;53423;49.224;12.074;2022-11-12T01:35:03;99437.88;;;7.37;76.42
2841;BME280;53423;49.224;12.074;2022-11-12T01:37:32;99433.78;;;7.33;77.21
2841;BME280;53423;49.224;12.074;2022-11-12T01:39:59;99435.59;;;7.45;76.74
2841;BME280;53423;49.224;12.074;2022-11-12T01:42:30;99435.47;;;7.59;75.72
2841;BME280;53423;49.224;12.074;2022-11-12T01:44:58;99435.50;;;7.72;75.78
2841;BME280;53423;49.224;12.074;2022-11-12T01:47:28;99433.94;;;7.57;74.98
2841;BME280;53423;49.224;12.074;2022-11-12T01:49:59;99434.94;;;7.54;76.09
2841;BME280;53423;49.224;12.074;2022-11-12T01:52:34;99442.78;;;7.42;76.08
2841;BME280;53423;49.224;12.074;2022-11-12T01:55:07;99432.34;;;7.54;75.89
2841;BME280;53423;49.224;12.074;2022-11-12T01:57:41;99432.06;;;7.59;76.08
2841;BME280;53423;49.224;12.074;2022-11-12T02:00:11;99429.53;;;7.45;75.34
2841;BME280;53423;49.224;12.074;2022-11-12T02:02:42;99433.72;;;7.47;76.38
2841;BME280;53423;49.224;12.074;2022-11-12T02:05:12;99436.34;;;7.21;76.90
2841;BME280;53423;49.224;12.074;2022-11-12T02:07:42;99432.97;;;7.45;75.98
2841;BME280;53423;49.224;12.074;2022-11-12T02:10:12;99430.31;;;7.33;75.84
2841;BME280;53423;49.224;12.074;2022-11-12T02:12:42;99431.38;;;7.43;76.27
2841;BME280;53423;49.224;12.074;2022-11-12T02:15:28;99429.84;;;7.53;76.23
2841;BME280;53423;49.224;12.074;2022-11-12T02:17:55;99426.72;;;7.61;75.81
2841;BME280;53423;49.224;12.074;2022-11-12T02:20:24;99429.03;;;7.52;76.07
2841;BME280;53423;49.224;12.074;2022-11-12T02:22:53;99432.22;;;7.56;75.91
2841;BME280;53423;49.224;12.074;2022-11-12T02:25:23;99422.75;;;7.55;75.10
2841;BME280;53423;49.224;12.074;2022-11-12T02:27:51;99421.78;;;7.43;76.28
2841;BME280;53423;49.224;12.074;2022-11-12T02:30:31;99422.44;;;7.59;75.59
2841;BME280;53423;49.224;12.074;2022-11-12T02:32:58;99423.97;;;7.49;75.54
2841;BME280;53423;49.224;12.074;2022-11-12T02:35:26;99416.38;;;7.46;76.32
2841;BME280;53423;49.224;12.074;2022-11-12T02:37:56;99421.28;;;7.51;75.86
2841;BME280;53423;49.224;12.074;2022-11-12T02:40:23;99427.84;;;7.44;75.62
2841;BME280;53423;49.224;12.074;2022-11-12T02:42:51;99427.81;;;7.31;76.49
2841;BME280;53423;49.224;12.074;2022-11-12T02:45:19;99413.22;;;7.41;75.78
2841;BME280;53423;49.224;12.074;2022-11-12T02:47:47;99417.81;;;7.25;76.52
2841;BME280;53423;49.224;12.074;2022-11-12T02:50:15;99422.59;;;7.19;77.08
2841;BME280;53423;49.224;12.074;2022-11-12T02:52:44;99416.47;;;7.32;76.69
2841;BME280;53423;49.224;12.074;2022-11-12T02:55:13;99414.88;;;7.30;76.24
2841;BME280;53423;49.224;12.074;2022-11-12T02:57:40;99417.88;;;7.11;76.50
2841;BME280;53423;49.224;12.074;2022-11-12T03:00:11;99424.03;;;7.10;76.71
2841;BME280;53423;49.224;12.074;2022-11-12T03:02:39;99419.81;;;7.08;76.89
2841;BME280;53423;49.224;12.074;2022-11-12T03:05:09;99417.84;;;6.99;76.82
2841;BME280;53423;49.224;12.074;2022-11-12T03:07:37;99427.28;;;7.14;76.12
2841;BME280;53423;49.224;12.074;2022-11-12T03:10:05;99426.44;;;7.13;76.74
2841;BME280;53423;49.224;12.074;2022-11-12T03:12:34;99425.56;;;7.00;76.18
2841;BME280;53423;49.224;12.074;2022-11-12T03:15:03;99432.47;;;6.87;76.46
2841;BME280;53423;49.224;12.074;2022-11-12T03:17:33;99422.78;;;6.89;76.12
2841;BME280;53423;49.224;12.074;2022-11-12T03:20:01;99429.88;;;6.87;77.29
2841;BME280;53423;49.224;12.074;2022-11-12T03:22:28;99427.34;;;6.86;76.62
2841;BME280;53423;49.224;12.074;2022-11-12T03:24:56;99422.25;;;6.84;76.14
2841;BME280;53423;49.224;12.074;2022-11-12T03:27:24;99423.41;;;6.80;76.89
2841;BME280;53423;49.224;12.074;2022-11-12T03:29:53;99423.28;;;6.82;75.92
2841;BME280;53423;49.224;12.074;2022-11-12T03:32:21;99431.88;;;6.70;76.73
2841;BME280;53423;49.224;12.074;2022-11-12T03:34:48;99426.28;;;6.76;76.18
2841;BME280;53423;49.224;12.074;2022-11-12T03:37:21;99427.78;;;6.66;77.06
2841;BME280;53423;49.224;12.074;2022-11-12T03:39:48;99424.75;;;6.59;76.85
2841;BME280;53423;49.224;12.074;2022-11-12T03:42:16;99432.91;;;6.67;75.79
2841;BME280;53423;49.224;12.074;2022-11-12T03:44:44;99430.06;;;6.84;74.97
2841;BME280;53423;49.224;12.074;2022-11-12T03:47:13;99424.84;;;6.58;76.34
2841;BME280;53423;49.224;12.074;2022-11-12T03:49:41;99433.06;;;6.78;76.09
2841;BME280;53423;49.224;12.074;2022-11-12T03:52:08;99432.78;;;6.83;75.75
2841;BME280;53423;49.224;12.074;2022-11-12T03:54:36;99431.66;;;6.87;74.81
2841;BME280;53423;49.224;12.074;2022-11-12T03:57:04;99434.28;;;6.73;75.40
2841;BME280;53423;49.224;12.074;2022-11-12T03:59:32;99434.63;;;6.40;75.88
2841;BME280;53423;49.224;12.074;2022-11-12T04:01:59;99430.81;;;6.46;76.36
2841;BME280;53423;49.224;12.074;2022-11-12T04:04:29;99429.69;;;6.50;76.06
2841;BME280;53423;49.224;12.074;2022-11-12T04:07:10;99425.88;;;6.55;75.58
2841;BME280;53423;49.224;12.074;2022-11-12T04:09:55;99426.81;;;6.81;75.65
2841;BME280;53423;49.224;12.074;2022-11-12T04:12:23;99427.63;;;6.95;74.43
2841;BME280;53423;49.224;12.074;2022-11-12T04:15:09;99424.97;;;6.83;76.19
2841;BME280;53423;49.224;12.074;2022-11-12T04:17:37;99431.75;;;6.85;75.20
2841;BME280;53423;49.224;12.074;2022-11-12T04:20:23;99436.97;;;6.85;74.96
2841;BME280;53423;49.224;12.074;2022-11-12T04:23:09;99436.78;;;6.88;75.29
2841;BME280;53423;49.224;12.074;2022-11-12T04:25:38;99436.13;;;6.85;75.61
2841;BME280;53423;49.224;12.074;2022-11-12T04:28:23;99432.44;;;6.75;75.88
2841;BME280;53423;49.224;12.074;2022-11-12T04:30:51;99420.19;;;6.63;77.13
2841;BME280;53423;49.224;12.074;2022-11-12T04:33:18;99424.81;;;6.72;76.48
2841;BME280;53423;49.224;12.074;2022-11-12T04:35:47;99420.97;;;6.77;76.06
2841;BME280;53423;49.224;12.074;2022-11-12T04:38:15;99422.25;;;6.84;76.06
2841;BME280;53423;49.224;12.074;2022-11-12T04:40:42;99423.31;;;6.68;76.46
2841;BME280;53423;49.224;12.074;2022-11-12T04:43:28;99422.00;;;6.75;76.42
2841;BME280;53423;49.224;12.074;2022-11-12T04:46:13;99418.97;;;6.95;75.28
2841;BME280;53423;49.224;12.074;2022-11-12T04:48:41;99422.25;;;6.84;75.99
2841;BME280;53423;49.224;12.074;2022-11-12T04:51:10;99419.84;;;6.81;75.41
2841;BME280;53423;49.224;12.074;2022-11-12T04:53:52;99421.91;;;6.76;76.08
2841;BME280;53423;49.224;12.074;2022-11-12T04:56:20;99422.44;;;6.81;75.18
2841;BME280;53423;49.224;12.074;2022-11-12T04:58:47;99427.03;;;6.64;74.46
2841;BME280;53423;49.224;12.074;2022-11-12T05:01:15;99428.00;;;6.63;74.40
2841;BME280;53423;49.224;12.074;2022-11-12T05:03:43;99425.47;;;6.61;75.48
2841;BME280;53423;49.224;12.074;2022-11-12T05:06:12;99429.31;;;6.56;75.09
2841;BME280;53423;49.224;12.074;2022-11-12T05:08:54;99427.16;;;6.62;75.07
2841;BME280;53423;49.224;12.074;2022-11-12T05:11:22;99423.19;;;6.57;74.92
2841;BME280;53423;49.224;12.074;2022-11-12T05:13:49;99416.81;;;6.61;74.85
2841;BME280;53423;49.224;12.074;2022-11-12T05:16:17;99423.28;;;6.55;74.63
2841;BME280;53423;49.224;12.074;2022-11-12T05:18:45;99434.16;;;6.48;75.79
2841;BME280;53423;49.224;12.074;2022-11-12T05:21:15;99419.75;;;6.42;76.02
2841;BME280;53423;49.224;12.074;2022-11-12T05:24:08;99422.09;;;6.47;75.10
2841;BME280;53423;49.224;12.074;2022-11-12T05:26:56;99414.47;;;6.29;76.76
2841;BME280;53423;49.224;12.074;2022-11-12T05:29:24;99419.19;;;6.37;76.84
2841;BME280;53423;49.224;12.074;2022-11-12T05:31:51;99412.13;;;6.53;76.67
2841;BME280;53423;49.224;12.074;2022-11-12T05:34:19;99415.81;;;6.63;75.53
2841;BME280;53423;49.224;12.074;2022-11-12T05:36:50;99416.34;;;6.68;76.66
2841;BME280;53423;49.224;12.074;2022-11-12T05:39:17;99418.00;;;6.69;76.01
2841;BME280;53423;49.224;12.074;2022-11-12T05:41:46;99410.31;;;6.54;75.88
2841;BME280;53423;49.224;12.074;2022-11-12T05:44:34;99420.69;;;6.55;75.44
2841;BME280;53423;49.224;12.074;2022-11-12T05:47:01;99421.03;;;6.63;75.38
2841;BME280;53423;49.224;12.074;2022-11-12T05:49:29;99417.47;;;6.64;75.10
2841;BME280;53423;49.224;12.074;2022-11-12T05:51:58;99420.41;;;6.46;76.01
2841;BME280;53423;49.224;12.074;2022-11-12T05:54:26;99418.25;;;6.52;76.22
2841;BME280;53423;49.224;12.074;2022-11-12T05:56:54;99412.22;;;6.52;75.78
2841;BME280;53423;49.224;12.074;2022-11-12T05:59:21;99422.34;;;6.56;75.93
2841;BME280;53423;49.224;12.074;2022-11-12T06:01:49;99415.28;;;6.30;77.21
2841;BME280;53423;49.224;12.074;2022-11-12T06:04:17;99425.59;;;6.46;76.84
2841;BME280;53423;49.224;12.074;2022-11-12T06:06:45;99428.81;;;6.37;75.99
2841;BME280;53423;49.224;12.074;2022-11-12T06:09:14;99427.69;;;6.67;75.97
2841;BME280;53423;49.224;12.074;2022-11-12T06:11:42;99424.78;;;6.45;75.74
2841;BME280;53423;49.224;12.074;2022-11-12T06:14:09;99430.56;;;6.36;76.88
2841;BME280;53423;49.224;12.074;2022-11-12T06:16:37;99424.78;;;6.45;76.93
2841;BME280;53423;49.224;12.074;2022-11-12T06:19:05;99433.88;;;6.52;75.87
2841;BME280;53423;49.224;12.074;2022-11-12T06:21:33;99433.63;;;6.43;76.46
2841;BME280;53423;49.224;12.074;2022-11-12T06:24:01;99441.22;;;6.46;75.38
2841;BME280;53423;49.224;12.074;2022-11-12T06:26:30;99434.50;;;6.56;75.07
2841;BME280;53423;49.224;12.074;2022-11-12T06:28:58;99439.19;;;6.51;75.86
2841;BME280;53423;49.224;12.074;2022-11-12T06:31:25;99442.50;;;6.67;76.06
2841;BME280;53423;49.224;12.074;2022-11-12T06:33:53;99443.06;;;6.72;75.68
2841;BME280;53423;49.224;12.074;2022-11-12T06:36:21;99448.50;;;6.41;76.66
2841;BME280;53423;49.224;12.074;2022-11-12T06:38:48;99440.66;;;6.55;75.92
2841;BME280;53423;49.224;12.074;2022-11-12T06:41:16;99440.03;;;6.51;76.01
2841;BME280;53423;49.224;12.074;2022-11-12T06:43:45;99444.19;;;6.54;75.71
2841;BME280;53423;49.224;12.074;2022-11-12T06:46:15;99442.22;;;6.57;75.17
2841;BME280;53423;49.224;12.074;2022-11-12T06:48:43;99447.19;;;6.62;74.96
2841;BME280;53423;49.224;12.074;2022-11-12T06:51:15;99441.47;;;6.69;75.42
2841;BME280;53423;49.224;12.074;2022-11-12T06:53:44;99444.41;;;6.77;74.98
2841;BME280;53423;49.224;12.074;2022-11-12T06:56:12;99449.53;;;6.79;74.85
2841;BME280;53423;49.224;12.074;2022-11-12T06:58:40;99443.88;;;6.72;75.80
2841;BME280;53423;49.224;12.074;2022-11-12T07:01:12;99450.38;;;7.06;74.77
2841;BME280;53423;49.224;12.074;2022-11-12T07:03:41;99452.97;;;7.06;74.14
2841;BME280;53423;49.224;12.074;2022-11-12T07:06:11;99462.59;;;7.05;74.91
2841;BME280;53423;49.224;12.074;2022-11-12T07:08:40;99461.50;;;6.95;73.45
2841;BME280;53423;49.224;12.074;2022-11-12T07:11:08;99457.00;;;6.97;73.37
2841;BME280;53423;49.224;12.074;2022-11-12T07:13:37;99461.88;;;6.89;73.57
2841;BME280;53423;49.224;12.074;2022-11-12T07:16:06;99465.63;;;6.85;74.18
2841;BME280;53423;49.224;12.074;2022-11-12T07:18:36;99462.94;;;7.26;73.08
2841;BME280;53423;49.224;12.074;2022-11-12T07:21:06;99456.66;;;7.16;72.52
2841;BME280;53423;49.224;12.074;2022-11-12T07:23:34;99467.50;;;7.10;73.30
2841;BME280;53423;49.224;12.074;2022-11-12T07:26:04;99472.47;;;7.00;73.54
2841;BME280;53423;49.224;12.074;2022-11-12T07:28:33;99477.09;;;7.09;73.67
2841;BME280;53423;49.224;12.074;2022-11-12T07:31:02;99478.63;;;6.99;73.47
2841;BME280;53423;49.224;12.074;2022-11-12T07:33:30;99471.09;;;6.95;73.99
2841;BME280;53423;49.224;12.074;2022-11-12T07:36:01;99477.94;;;7.10;74.42
2841;BME280;53423;49.224;12.074;2022-11-12T07:38:30;99470.75;;;7.13;73.82
2841;BME280;53423;49.224;12.074;2022-11-12T07:40:59;99474.25;;;7.00;74.25
2841;BME280;53423;49.224;12.074;2022-11-12T07:43:30;99478.41;;;7.02;74.97
2841;BME280;53423;49.224;12.074;2022-11-12T07:45:58;99480.44;;;7.11;73.04
2841;BME280;53423;49.224;12.074;2022-11-12T07:48:33;99484.56;;;7.01;73.94
2841;BME280;53423;49.224;12.074;2022-11-12T07:51:04;99464.28;;;6.92;73.31
2841;BME280;53423;49.224;12.074;2022-11-12T07:53:33;99472.50;;;6.86;74.76
2841;BME280;53423;49.224;12.074;2022-11-12T07:56:01;99463.84;;;7.12;74.00
2841;BME280;53423;49.224;12.074;2022-11-12T07:58:31;99471.84;;;7.23;72.95
2841;BME280;53423;49.224;12.074;2022-11-12T08:01:07;99469.59;;;6.91;74.03
2841;BME280;53423;49.224;12.074;2022-11-12T08:03:36;99469.03;;;7.00;73.89
2841;BME280;53423;49.224;12.074;2022-11-12T08:06:06;99470.97;;;7.23;73.77
2841;BME280;53423;49.224;12.074;2022-11-12T08:08:33;99456.94;;;7.38;72.87
2841;BME280;53423;49.224;12.074;2022-11-12T08:11:01;99473.84;;;7.32;70.80
2841;BME280;53423;49.224;12.074;2022-11-12T08:13:29;99467.47;;;7.24;72.98
2841;BME280;53423;49.224;12.074;2022-11-12T08:15:57;99467.06;;;7.30;73.40
2841;BME280;53423;49.224;12.074;2022-11-12T08:18:25;99466.34;;;7.40;72.64
2841;BME280;53423;49.224;12.074;2022-11-12T08:20:58;99467.91;;;7.30;72.79
2841;BME280;53423;49.224;12.074;2022-11-12T08:23:27;99467.91;;;7.43;73.29
2841;BME280;53423;49.224;12.074;2022-11-12T08:25:59;99467.09;;;7.42;72.60
2841;BME280;53423;49.224;12.074;2022-11-12T08:28:28;99466.63;;;7.36;72.26
2841;BME280;53423;49.224;12.074;2022-11-12T08:30:56;99468.97;;;7.40;72.33
2841;BME280;53423;49.224;12.074;2022-11-12T08:33:24;99465.97;;;7.59;72.49
2841;BME280;53423;49.224;12.074;2022-11-12T08:35:52;99469.28;;;7.48;71.14
2841;BME280;53423;49.224;12.074;2022-11-12T08:38:20;99466.56;;;7.37;71.84
2841;BME280;53423;49.224;12.074;2022-11-12T08:40:49;99470.41;;;7.44;72.21
2841;BME280;53423;49.224;12.074;2022-11-12T08:43:17;99480.25;;;7.53;71.89
2841;BME280;53423;49.224;12.074;2022-11-12T08:45:44;99485.50;;;7.66;72.20
2841;BME280;53423;49.224;12.074;2022-11-12T08:48:14;99479.69;;;7.36;71.88
2841;BME280;53423;49.224;12.074;2022-11-12T08:50:41;99486.59;;;7.49;71.77
2841;BME280;53423;49.224;12.074;2022-11-12T08:53:10;99490.91;;;7.50;71.30
2841;BME280;53423;49.224;12.074;2022-11-12T08:55:39;99482.56;;;7.58;71.65
2841;BME280;53423;49.224;12.074;2022-11-12T08:58:08;99490.47;;;7.44;72.21
2841;BME280;53423;49.224;12.074;2022-11-12T09:00:38;99488.81;;;7.55;72.24
2841;BME280;53423;49.224;12.074;2022-11-12T09:03:10;99482.06;;;7.78;71.95
2841;BME280;53423;49.224;12.074;2022-11-12T09:05:40;99478.28;;;7.70;71.43
2841;BME280;53423;49.224;12.074;2022-11-12T09:08:11;99482.50;;;7.85;72.06
2841;BME280;53423;49.224;12.074;2022-11-12T09:10:39;99490.00;;;7.77;71.30
2841;BME280;53423;49.224;12.074;2022-11-12T09:13:09;99488.03;;;7.80;72.60
2841;BME280;53423;49.224;12.074;2022-11-12T09:15:37;99481.38;;;8.01;71.70
2841;BME280;53423;49.224;12.074;2022-11-12T09:18:06;99479.34;;;7.80;72.26
2841;BME280;53423;49.224;12.074;2022-11-12T09:20:34;99481.84;;;7.69;72.60
2841;BME280;53423;49.224;12.074;2022-11-12T09:23:05;99478.44;;;7.81;73.10
2841;BME280;53423;49.224;12.074;2022-11-12T09:25:33;99469.56;;;7.96;72.38
2841;BME280;53423;49.224;12.074;2022-11-12T09:28:06;99473.63;;;8.12;72.02
2841;BME280;53423;49.224;12.074;2022-11-12T09:30:36;99471.06;;;8.25;70.91
2841;BME280;53423;49.224;12.074;2022-11-12T09:33:04;99473.75;;;8.36;71.63
2841;BME280;53423;49.224;12.074;2022-11-12T09:35:33;99466.09;;;8.58;70.60
2841;BME280;53423;49.224;12.074;2022-11-12T09:38:01;99465.06;;;8.35;71.00
2841;BME280;53423;49.224;12.074;2022-11-12T09:40:42;99475.91;;;8.54;70.99
2841;BME280;53423;49.224;12.074;2022-11-12T09:43:19;99477.69;;;8.66;70.81
2841;BME280;53423;49.224;12.074;2022-11-12T09:45:51;99476.91;;;8.77;69.89
2841;BME280;53423;49.224;12.074;2022-11-12T09:48:41;99471.75;;;8.88;69.74
2841;BME280;53423;49.224;12.074;2022-11-12T09:51:26;99467.03;;;8.93;69.87
2841;BME280;53423;49.224;12.074;2022-11-12T09:53:56;99460.78;;;8.83;67.63
2841;BME280;53423;49.224;12.074;2022-11-12T09:56:25;99465.78;;;8.86;69.06
2841;BME280;53423;49.224;12.074;2022-11-12T09:58:53;99463.00;;;8.76;69.34
2841;BME280;53423;49.224;12.074;2022-11-12T10:01:26;99462.16;;;8.76;69.08
2841;BME280;53423;49.224;12.074;2022-11-12T10:04:15;99463.53;;;8.82;69.39
2841;BME280;53423;49.224;12.074;2022-11-12T10:06:53;99470.06;;;8.87;68.99
2841;BME280;53423;49.224;12.074;2022-11-12T10:09:24;99473.06;;;8.70;69.33
2841;BME280;53423;49.224;12.074;2022-11-12T10:12:04;99462.81;;;9.03;67.82
2841;BME280;53423;49.224;12.074;2022-11-12T10:15:16;99462.06;;;9.01;67.88
2841;BME280;53423;49.224;12.074;2022-11-12T10:18:08;99459.72;;;9.09;67.85
2841;BME280;53423;49.224;12.074;2022-11-12T10:20:43;99454.81;;;9.17;68.00
2841;BME280;53423;49.224;12.074;2022-11-12T10:23:15;99453.00;;;8.94;68.27
2841;BME280;53423;49.224;12.074;2022-11-12T10:25:47;99454.50;;;9.09;69.44
2841;BME280;53423;49.224;12.074;2022-11-12T10:28:26;99448.97;;;9.48;68.23
2841;BME280;53423;49.224;12.074;2022-11-12T10:31:09;99433.16;;;9.50;68.00
2841;BME280;53423;49.224;12.074;2022-11-12T10:33:39;99435.53;;;9.53;68.69
2841;BME280;53423;49.224;12.074;2022-11-12T10:36:25;99431.94;;;9.43;68.51
2841;BME280;53423;49.224;12.074;2022-11-12T10:38:55;99432.22;;;9.51;68.08
2841;BME280;53423;49.224;12.074;2022-11-12T10:41:26;99425.66;;;9.56;67.89
2841;BME280;53423;49.224;12.074;2022-11-12T10:43:56;99426.19;;;9.38;68.45
2841;BME280;53423;49.224;12.074;2022-11-12T10:46:25;99415.53;;;9.52;67.37
2841;BME280;53423;49.224;12.074;2022-11-12T10:48:57;99415.72;;;9.72;66.79
2841;BME280;53423;49.224;12.074;2022-11-12T10:51:29;99410.25;;;9.75;66.65
2841;BME280;53423;49.224;12.074;2022-11-12T10:53:57;99409.03;;;9.57;67.48
2841;BME280;53423;49.224;12.074;2022-11-12T10:56:29;99411.09;;;9.76;66.56
2841;BME280;53423;49.224;12.074;2022-11-12T10:59:13;99406.78;;;9.64;67.75
2841;BME280;53423;49.224;12.074;2022-11-12T11:01:42;99408.47;;;9.76;65.27
2841;BME280;53423;49.224;12.074;2022-11-12T11:04:22;99402.88;;;9.80;66.20
2841;BME280;53423;49.224;12.074;2022-11-12T11:06:58;99407.03;;;9.83;65.74
2841;BME280;53423;49.224;12.074;2022-11-12T11:09:27;99401.00;;;10.04;65.53
2841;BME280;53423;49.224;12.074;2022-11-12T11:11:55;99399.16;;;9.83;66.91
2841;BME280;53423;49.224;12.074;2022-11-12T11:14:25;99388.13;;;10.24;65.59
2841;BME280;53423;49.224;12.074;2022-11-12T11:16:56;99388.00;;;10.25;64.66
2841;BME280;53423;49.224;12.074;2022-11-12T11:19:32;99382.66;;;10.38;66.39
2841;BME280;53423;49.224;12.074;2022-11-12T11:22:21;99381.09;;;10.35;65.18
2841;BME280;53423;49.224;12.074;2022-11-12T11:25:02;99377.28;;;9.84;66.21
2841;BME280;53423;49.224;12.074;2022-11-12T11:27:37;99381.69;;;10.05;66.38
2841;BME280;53423;49.224;12.074;2022-11-12T11:30:11;99382.91;;;10.24;66.19
2841;BME280;53423;49.224;12.074;2022-11-12T11:32:53;99381.59;;;10.18;66.99
2841;BME280;53423;49.224;12.074;2022-11-12T11:35:29;99380.28;;;10.24;65.97
2841;BME280;53423;49.224;12.074;2022-11-12T11:38:13;99372.41;;;10.24;67.49
2841;BME280;53423;49.224;12.074;2022-11-12T11:40:50;99369.56;;;10.27;66.20
2841;BME280;53423;49.224;12.074;2022-11-12T11:43:38;99372.06;;;10.28;66.84
2841;BME280;53423;49.224;12.074;2022-11-12T11:46:15;99358.22;;;10.37;65.83
2841;BME280;53423;49.224;12.074;2022-11-12T11:48:53;99360.50;;;10.31;66.91
2841;BME280;53423;49.224;12.074;2022-11-12T11:51:36;99357.97;;;10.40;66.79
2841;BME280;53423;49.224;12.074;2022-11-12T11:54:15;99349.75;;;10.34;66.53
2841;BME280;53423;49.224;12.074;2022-11-12T11:56:47;99347.91;;;10.25;67.20
2841;BME280;53423;49.224;12.074;2022-11-12T11:59:24;99347.53;;;9.96;67.80
2841;BME280;53423;49.224;12.074;2022-11-12T12:02:20;99348.81;;;9.90;68.66
2841;BME280;53423;49.224;12.074;2022-11-12T12:04:53;99352.06;;;10.16;67.99
2841;BME280;53423;49.224;12.074;2022-11-12T12:07:33;99348.34;;;9.96;68.46
2841;BME280;53423;49.224;12.074;2022-11-12T12:10:11;99340.94;;;10.01;68.48
2841;BME280;53423;49.224;12.074;2022-11-12T12:12:53;99350.25;;;10.05;68.44
2841;BME280;53423;49.224;12.074;2022-11-12T12:15:43;99342.88;;;9.99;69.09
2841;BME280;53423;49.224;12.074;2022-11-12T12:18:23;99344.66;;;9.77;69.04
2841;BME280;53423;49.224;12.074;2022-11-12T12:21:01;99343.59;;;9.90;68.24
2841;BME280;53423;49.224;12.074;2022-11-12T12:23:34;99350.84;;;9.87;67.85
2841;BME280;53423;49.224;12.074;2022-11-12T12:26:08;99348.97;;;10.11;68.38
2841;BME280;53423;49.224;12.074;2022-11-12T12:28:42;99347.63;;;10.17;67.72
2841;BME280;53423;49.224;12.074;2022-11-12T12:31:13;99347.41;;;10.09;68.89
2841;BME280;53423;49.224;12.074;2022-11-12T12:33:46;99350.72;;;10.22;67.57
2841;BME280;53423;49.224;12.074;2022-11-12T12:36:18;99354.53;;;10.29;66.55
2841;BME280;53423;49.224;12.074;2022-11-12T12:38:52;99340.22;;;10.44;66.33
2841;BME280;53423;49.224;12.074;2022-11-12T12:41:24;99341.16;;;10.54;66.60
2841;BME280;53423;49.224;12.074;2022-11-12T12:43:56;99346.25;;;10.55;66.79
2841;BME280;53423;49.224;12.074;2022-11-12T12:46:27;99338.19;;;10.79;65.63
2841;BME280;53423;49.224;12.074;2022-11-12T12:48:57;99341.16;;;10.54;65.97
2841;BME280;53423;49.224;12.074;2022-11-12T12:51:28;99338.66;;;10.52;66.24
2841;BME280;53423;49.224;12.074;2022-11-12T12:53:59;99341.53;;;10.49;67.39
2841;BME280;53423;49.224;12.074;2022-11-12T12:56:44;99339.69;;;10.61;66.45
2841;BME280;53423;49.224;12.074;2022-11-12T12:59:20;99342.44;;;10.59;67.63
2841;BME280;53423;49.224;12.074;2022-11-12T13:01:57;99327.75;;;10.36;67.97
2841;BME280;53423;49.224;12.074;2022-11-12T13:04:54;99339.69;;;10.72;67.28
2841;BME280;53423;49.224;12.074;2022-11-12T13:07:38;99338.66;;;10.84;67.46
2841;BME280;53423;49.224;12.074;2022-11-12T13:13:31;99334.06;;;10.65;68.16
2841;BME280;53423;49.224;12.074;2022-11-12T13:16:00;99330.63;;;10.65;67.38
2841;BME280;53423;49.224;12.074;2022-11-12T13:19:00;99331.56;;;10.64;67.58
2841;BME280;53423;49.224;12.074;2022-11-12T13:21:28;99325.34;;;10.76;67.86
2841;BME280;53423;49.224;12.074;2022-11-12T13:24:02;99322.00;;;10.74;68.25
2841;BME280;53423;49.224;12.074;2022-11-12T13:26:51;99325.59;;;10.73;68.72
2841;BME280;53423;49.224;12.074;2022-11-12T13:29:23;99322.72;;;10.44;69.52
2841;BME280;53423;49.224;12.074;2022-11-12T13:35:13;99315.38;;;10.16;69.86
2841;BME280;53423;49.224;12.074;2022-11-12T13:37:42;99320.50;;;10.18;70.40
2841;BME280;53423;49.224;12.074;2022-11-12T13:40:13;99308.81;;;10.22;70.65